Malton, Canada
Current Conditions -  °F | °C
As of 7:00 PM on Monday 24 Nov 2014 (Local Time) from CYYZ Reporting Station
Broken Clouds Broken Clouds  
Wind Chill: 33°   Ceiling: 2800
Heat Index: 45°   Visibility: 15mi
Dew Point: 34°   Wind: 39mph
Humidity: 66%   Direction: 230°SW
Pressure: 29.44"   Gusts: 49mph
Location:  43.72°N, 79.64°W
Report Text: CYYZ 250000Z 23034G43KT 15SM BKN028 07/01 A2944 RMK SC7 PRESRR SLP971
Loading
Personal Weather Stations






























Interactive Weather Map New forecast layout! Learn more

10-Day Weather Forecast

Advertisements
Track Severe Weather on mobile